Time;durP1;ratioP1;P1;durP2;ratioP2;P2;SDS_P1;SDS_P2;PMS_P1;PMS_P2;Temp;Humidity;BMP_temperature;BMP_pressure;BME280_temperature;BME280_humidity;BME280_pressure;Samples;Min_cycle;Max_cycle;Signal;HPM_P1;HPM_P2
2022/10/29 00:00:12;;;;;;;6.88;1.58;;;21.50;90.80;;;;;;10534134;28;20056;-47
2022/10/29 00:05:14;;;;;;;4.68;1.13;;;21.50;90.80;;;;;;10534662;28;20088;-48
2022/10/29 00:10:16;;;;;;;7.75;1.35;;;21.50;90.80;;;;;;10517304;28;20406;-46
2022/10/29 00:15:20;;;;;;;6.35;1.20;;;21.40;90.80;;;;;;10536235;28;20040;-47
2022/10/29 00:20:22;;;;;;;5.65;1.40;;;21.40;90.90;;;;;;10532950;28;20554;-44
2022/10/29 00:25:24;;;;;;;4.70;1.73;;;21.20;90.80;;;;;;10529879;28;20051;-41
2022/10/29 00:30:27;;;;;;;6.40;1.27;;;21.40;90.90;;;;;;10531629;28;20079;-45
2022/10/29 00:35:29;;;;;;;6.32;1.00;;;21.30;91.10;;;;;;10529980;28;20140;-42
2022/10/29 00:40:36;;;;;;;5.70;1.25;;;21.40;90.90;;;;;;10523556;28;20040;-42
2022/10/29 00:45:44;;;;;;;6.35;1.40;;;21.40;90.90;;;;;;10510953;28;20090;-46
2022/10/29 00:50:48;;;;;;;5.55;1.38;;;21.40;90.90;;;;;;10535663;28;20105;-43
2022/10/29 00:55:50;;;;;;;6.55;1.40;;;21.40;90.90;;;;;;10535395;28;20135;-45
2022/10/29 01:00:53;;;;;;;7.10;2.00;;;21.40;90.90;;;;;;10524915;28;20075;-47
2022/10/29 01:05:55;;;;;;;6.45;1.27;;;21.30;90.90;;;;;;10523508;28;20044;-46
2022/10/29 01:11:13;;;;;;;4.65;1.50;;;21.30;90.90;;;;;;10511967;28;20079;-48
2022/10/29 01:16:27;;;;;;;4.68;1.02;;;21.30;90.90;;;;;;10533891;28;20070;-48
2022/10/29 01:21:41;;;;;;;3.80;1.30;;;21.30;91.00;;;;;;10536330;28;20075;-48
2022/10/29 01:27:30;;;;;;;8.80;1.08;;;21.30;91.00;;;;;;10532394;28;20076;-48
2022/10/29 01:32:39;;;;;;;4.03;1.10;;;21.30;91.00;;;;;;10500040;28;20071;-47
2022/10/29 01:37:51;;;;;;;5.55;1.48;;;21.30;91.00;;;;;;10539775;28;20467;-50
2022/10/29 01:43:02;;;;;;;6.95;1.48;;;21.30;91.00;;;;;;10531226;28;20151;-46
2022/10/29 01:48:10;;;;;;;3.58;1.17;;;21.20;91.00;;;;;;10538743;28;20453;-48
2022/10/29 01:53:12;;;;;;;3.83;1.92;;;21.30;91.00;;;;;;10542209;28;20070;-46
2022/10/29 01:58:14;;;;;;;5.32;1.23;;;21.20;91.00;;;;;;10544197;28;20540;-45
2022/10/29 02:03:32;;;;;;;5.32;1.10;;;21.20;91.10;;;;;;10526500;28;20082;-45
2022/10/29 02:08:44;;;;;;;4.75;1.23;;;21.30;91.10;;;;;;10533210;28;20047;-49
2022/10/29 02:13:52;;;;;;;7.25;1.52;;;21.20;91.00;;;;;;10527060;28;20048;-48
2022/10/29 02:18:57;;;;;;;3.60;0.90;;;21.20;91.00;;;;;;10556221;28;20047;-46
2022/10/29 02:23:58;;;;;;;3.40;1.23;;;21.20;91.00;;;;;;10537250;28;20507;-47
2022/10/29 02:29:01;;;;;;;3.78;1.30;;;21.20;91.00;;;;;;10534214;28;20483;-47
2022/10/29 02:34:04;;;;;;;;;;;21.20;90.90;;;;;;10530282;28;20481;-46
2022/10/29 02:39:06;;;;;;;1.95;0.80;;;21.20;90.90;;;;;;10530495;28;19928;-49
2022/10/29 02:44:07;;;;;;;2.90;0.98;;;21.20;91.00;;;;;;10520627;28;20075;-48
2022/10/29 02:49:10;;;;;;;3.03;1.23;;;21.20;91.00;;;;;;10535830;28;20059;-48
2022/10/29 02:54:12;;;;;;;3.90;1.05;;;21.20;91.00;;;;;;10533762;28;20127;-48
2022/10/29 02:59:14;;;;;;;5.10;1.30;;;21.10;90.90;;;;;;10525601;28;20076;-44
2022/10/29 03:04:17;;;;;;;4.28;1.00;;;21.20;91.00;;;;;;10516377;28;20055;-48
2022/10/29 03:09:19;;;;;;;1.83;0.90;;;21.10;91.00;;;;;;10531751;28;20494;-46
2022/10/29 03:14:21;;;;;;;1.63;0.90;;;21.10;91.00;;;;;;10514504;28;20044;-48
2022/10/29 03:19:24;;;;;;;2.00;0.75;;;21.20;90.90;;;;;;10522925;28;20048;-49
2022/10/29 03:24:26;;;;;;;3.47;1.55;;;21.10;90.90;;;;;;10520739;28;20512;-47
2022/10/29 03:29:28;;;;;;;2.58;0.98;;;21.10;91.20;;;;;;10531092;28;20549;-47
2022/10/29 03:34:31;;;;;;;4.28;1.00;;;21.10;90.90;;;;;;10531291;28;20544;-46
2022/10/29 03:39:33;;;;;;;1.95;0.85;;;21.10;91.00;;;;;;10527115;28;20372;-46
2022/10/29 03:44:35;;;;;;;4.82;1.02;;;21.10;90.90;;;;;;10527100;28;20075;-51
2022/10/29 03:49:38;;;;;;;2.33;1.00;;;21.10;90.90;;;;;;10527520;28;20095;-47
2022/10/29 03:54:40;;;;;;;2.65;1.10;;;21.10;91.00;;;;;;10527933;28;20638;-46
2022/10/29 03:59:42;;;;;;;2.33;1.00;;;21.10;90.90;;;;;;10529943;28;20075;-40
2022/10/29 04:04:45;;;;;;;4.78;1.15;;;21.00;90.90;;;;;;10528211;28;20101;-37
2022/10/29 04:09:47;;;;;;;6.05;0.98;;;21.10;90.90;;;;;;10523059;28;20542;-45
2022/10/29 04:14:48;;;;;;;6.85;1.27;;;21.10;90.90;;;;;;10519297;28;20082;-43
2022/10/29 04:19:52;;;;;;;1.38;0.68;;;21.00;91.10;;;;;;10527227;28;20101;-48
2022/10/29 04:24:54;;;;;;;2.15;0.90;;;21.00;91.30;;;;;;10451736;28;20126;-45
2022/10/29 04:29:56;;;;;;;4.93;1.10;;;21.00;91.30;;;;;;10440736;28;20074;-52
2022/10/29 04:34:59;;;;;;;2.75;1.27;;;21.00;91.20;;;;;;10443671;28;20052;-48
2022/10/29 04:40:01;;;;;;;2.22;0.95;;;20.90;91.20;;;;;;10451571;28;20179;-48
2022/10/29 04:45:03;;;;;;;5.00;1.25;;;21.00;91.10;;;;;;10448929;28;20045;-47
2022/10/29 04:50:06;;;;;;;;;;;21.00;91.00;;;;;;10451165;28;20524;-47
2022/10/29 04:55:08;;;;;;;6.85;1.58;;;21.00;91.00;;;;;;10450913;28;20389;-39
2022/10/29 05:00:11;;;;;;;;;;;21.00;91.00;;;;;;10452386;28;20141;-46
2022/10/29 05:05:14;;;;;;;6.30;1.60;;;21.00;90.90;;;;;;10449812;28;20388;-49
2022/10/29 05:10:16;;;;;;;2.78;1.13;;;21.00;91.00;;;;;;10450991;28;20041;-45
2022/10/29 05:15:18;;;;;;;4.30;1.58;;;20.90;90.90;;;;;;10448418;28;20053;-47
2022/10/29 05:20:21;;;;;;;2.70;1.00;;;20.90;90.90;;;;;;10459240;28;20108;-49
2022/10/29 05:25:23;;;;;;;5.43;1.65;;;20.90;91.00;;;;;;10546507;28;20040;-48
2022/10/29 05:30:25;;;;;;;1.85;0.90;;;20.90;90.90;;;;;;10546259;28;20075;-49
2022/10/29 05:35:28;;;;;;;7.15;1.08;;;20.90;91.00;;;;;;10522943;28;20080;-50
2022/10/29 05:40:30;;;;;;;3.45;1.20;;;20.90;90.90;;;;;;10515251;28;20078;-48
2022/10/29 05:45:32;;;;;;;6.15;1.20;;;20.90;90.90;;;;;;10503146;28;20094;-49
2022/10/29 05:50:36;;;;;;;4.07;1.13;;;20.90;90.90;;;;;;10527488;28;20054;-45
2022/10/29 05:55:38;;;;;;;4.97;1.27;;;20.90;91.20;;;;;;10523137;28;20071;-47
2022/10/29 06:00:42;;;;;;;3.83;1.45;;;20.90;90.90;;;;;;10533771;28;20114;-51
2022/10/29 06:05:47;;;;;;;2.17;0.80;;;20.90;90.90;;;;;;10535494;28;20173;-46
2022/10/29 06:10:49;;;;;;;3.00;0.98;;;21.00;91.00;;;;;;10523453;28;20048;-44
2022/10/29 06:15:55;;;;;;;3.67;1.00;;;20.90;90.90;;;;;;10520518;28;20468;-49
2022/10/29 06:20:59;;;;;;;2.00;0.70;;;20.80;90.90;;;;;;10521537;28;20058;-50
2022/10/29 06:26:02;;;;;;;5.18;1.05;;;20.90;90.80;;;;;;10534022;28;20048;-50
2022/10/29 06:31:04;;;;;;;2.75;0.90;;;20.90;90.90;;;;;;10529717;28;20060;-44
2022/10/29 06:36:08;;;;;;;4.75;1.08;;;20.80;90.90;;;;;;10532480;28;20047;-47
2022/10/29 06:41:09;;;;;;;3.08;1.33;;;20.80;90.90;;;;;;10532295;28;20101;-51
2022/10/29 06:46:11;;;;;;;2.28;1.05;;;20.80;90.80;;;;;;10544206;28;20071;-48
2022/10/29 06:51:14;;;;;;;5.82;1.60;;;20.80;90.80;;;;;;10529344;28;20765;-49
2022/10/29 06:56:16;;;;;;;4.18;1.38;;;20.80;90.80;;;;;;10529342;28;20040;-46
2022/10/29 07:01:18;;;;;;;4.13;1.30;;;20.80;90.70;;;;;;10521315;28;20736;-48
2022/10/29 07:06:22;;;;;;;3.58;1.27;;;20.80;90.80;;;;;;10526912;28;20109;-45
2022/10/29 07:11:24;;;;;;;2.17;0.95;;;20.80;90.80;;;;;;10516001;28;20094;-44
2022/10/29 07:16:25;;;;;;;1.88;0.95;;;20.80;90.70;;;;;;10524831;28;20086;-49
2022/10/29 07:21:29;;;;;;;2.50;1.38;;;20.80;90.80;;;;;;10529606;28;20113;-49
2022/10/29 07:26:30;;;;;;;3.00;1.10;;;20.80;90.80;;;;;;10531849;28;20143;-47
2022/10/29 07:31:32;;;;;;;3.90;1.20;;;20.80;90.80;;;;;;10525245;28;20109;-50
2022/10/29 07:36:36;;;;;;;2.58;1.20;;;20.80;90.70;;;;;;10536523;28;20080;-46
2022/10/29 07:41:38;;;;;;;2.60;1.15;;;20.80;90.70;;;;;;10538149;28;20130;-46
2022/10/29 07:46:39;;;;;;;2.67;1.02;;;20.80;90.80;;;;;;10541529;28;20113;-44
2022/10/29 07:51:42;;;;;;;4.55;1.70;;;20.90;90.70;;;;;;10532008;28;20453;-47
2022/10/29 07:56:44;;;;;;;2.88;1.38;;;20.90;90.70;;;;;;10549189;28;20075;-50
2022/10/29 08:01:46;;;;;;;7.13;1.45;;;21.00;90.70;;;;;;10529765;28;20051;-49
2022/10/29 08:06:49;;;;;;;3.78;1.30;;;20.90;90.70;;;;;;10534241;28;20128;-49
2022/10/29 08:11:51;;;;;;;5.20;1.52;;;20.90;90.70;;;;;;10534976;28;20151;-47
2022/10/29 08:16:54;;;;;;;7.22;1.30;;;20.70;90.80;;;;;;10542982;28;20047;-45
2022/10/29 08:21:57;;;;;;;3.67;1.35;;;20.90;90.80;;;;;;10537552;28;20054;-52
2022/10/29 08:26:59;;;;;;;4.80;1.13;;;20.90;90.80;;;;;;10542660;28;20043;-44
2022/10/29 08:32:00;;;;;;;9.20;1.33;;;20.90;90.80;;;;;;10540036;28;20468;-47
2022/10/29 08:37:04;;;;;;;2.97;1.30;;;20.90;90.80;;;;;;10530885;28;20134;-45
2022/10/29 08:42:17;;;;;;;2.65;1.27;;;20.90;90.80;;;;;;10532076;28;20094;-51
2022/10/29 08:47:20;;;;;;;8.35;2.00;;;20.90;90.70;;;;;;10535307;28;20059;-50
2022/10/29 08:52:27;;;;;;;4.40;1.45;;;21.00;90.70;;;;;;10533470;28;20068;-49
2022/10/29 08:57:33;;;;;;;4.70;1.40;;;20.90;91.00;;;;;;10539517;28;20098;-46
2022/10/29 09:02:35;;;;;;;5.10;1.83;;;20.90;90.70;;;;;;10527542;28;20040;-51
2022/10/29 09:07:54;;;;;;;4.65;1.55;;;21.00;90.70;;;;;;10529744;28;20088;-47
2022/10/29 09:13:16;;;;;;;6.30;1.95;;;20.90;90.80;;;;;;10536766;28;20460;-44
2022/10/29 09:18:44;;;;;;;3.40;1.53;;;20.90;91.00;;;;;;10518032;28;20044;-51
2022/10/29 09:23:58;;;;;;;3.30;1.60;;;21.00;91.30;;;;;;10536366;28;20825;-50
2022/10/29 09:29:18;;;;;;;5.45;1.83;;;21.00;90.80;;;;;;10538820;28;20051;-46
2022/10/29 09:34:28;;;;;;;4.97;2.15;;;21.00;91.30;;;;;;10533855;28;20048;-48
2022/10/29 09:39:35;;;;;;;11.80;2.80;;;21.20;91.20;;;;;;10530058;28;20446;-37
2022/10/29 09:44:43;;;;;;;7.65;2.20;;;21.10;91.20;;;;;;10532311;28;20489;-37
2022/10/29 09:49:58;;;;;;;9.35;2.75;;;21.20;91.10;;;;;;10532580;28;20099;-49
2022/10/29 09:55:04;;;;;;;17.80;3.38;;;21.30;91.30;;;;;;10536864;28;20045;-48
2022/10/29 10:00:13;;;;;;;11.02;3.40;;;21.20;91.40;;;;;;10543872;28;20040;-34
2022/10/29 10:09:01;;;;;;;11.60;4.45;;;21.70;91.90;;;;;;10514889;27;20533;-29
2022/10/29 10:14:08;;;;;;;10.38;3.47;;;21.30;91.90;;;;;;10464980;28;20051;-31
2022/10/29 10:19:23;;;;;;;5.78;2.83;;;21.10;92.20;;;;;;10491332;28;20080;-29
2022/10/29 10:24:31;;;;;;;7.15;3.38;;;21.10;92.60;;;;;;10485852;28;20098;-29
2022/10/29 10:29:33;;;;;;;12.57;3.47;;;21.20;92.10;;;;;;10458129;28;20655;-32
2022/10/29 10:34:37;;;;;;;6.05;2.78;;;21.40;91.50;;;;;;10483724;28;20558;-30
2022/10/29 10:39:43;;;;;;;6.72;3.78;;;21.40;91.40;;;;;;10490807;28;20079;-30
2022/10/29 10:44:48;;;;;;;8.95;4.22;;;21.30;91.70;;;;;;10458190;28;20080;-33
2022/10/29 10:49:50;;;;;;;9.32;3.10;;;21.40;91.60;;;;;;10473852;28;20128;-32
2022/10/29 10:54:59;;;;;;;6.85;3.22;;;21.30;91.90;;;;;;10468262;28;20123;-29
2022/10/29 11:00:05;;;;;;;6.35;2.80;;;21.40;91.40;;;;;;10470155;28;20073;-27
2022/10/29 11:05:15;;;;;;;5.70;2.70;;;21.40;91.30;;;;;;10475027;28;20394;-29
2022/10/29 11:10:24;;;;;;;10.02;3.42;;;21.60;91.00;;;;;;10476811;28;20044;-29
2022/10/29 11:15:36;;;;;;;6.63;2.88;;;21.40;91.30;;;;;;10478459;28;20127;-29
2022/10/29 11:20:40;;;;;;;5.65;3.30;;;21.50;91.20;;;;;;10458428;28;20048;-32
2022/10/29 11:25:48;;;;;;;10.63;3.67;;;21.50;91.00;;;;;;10458094;28;20049;-30
2022/10/29 11:30:56;;;;;;;8.45;4.22;;;21.50;90.80;;;;;;10429993;28;20156;-30
2022/10/29 11:36:03;;;;;;;6.82;3.20;;;21.50;90.90;;;;;;10423616;28;20501;-29
2022/10/29 11:41:19;;;;;;;10.30;4.38;;;21.60;90.90;;;;;;10428340;28;20490;-29
2022/10/29 11:46:30;;;;;;;8.98;4.30;;;21.60;90.50;;;;;;10447951;28;20065;-28
2022/10/29 11:51:39;;;;;;;10.82;3.58;;;21.70;91.30;;;;;;10449995;28;20068;-28
2022/10/29 11:56:51;;;;;;;10.27;4.40;;;21.80;91.00;;;;;;10446457;28;20993;-27
2022/10/29 12:01:59;;;;;;;9.20;4.30;;;22.00;89.40;;;;;;10435616;28;20075;-27
2022/10/29 12:07:27;;;;;;;11.05;3.65;;;22.00;89.00;;;;;;10451055;28;20784;-27
2022/10/29 12:12:41;;;;;;;18.40;4.88;;;22.10;88.10;;;;;;10454775;28;20073;-28
2022/10/29 12:17:51;;;;;;;13.88;5.88;;;22.20;88.20;;;;;;10455112;28;20124;-28
2022/10/29 12:23:01;;;;;;;13.50;3.58;;;22.50;89.60;;;;;;10449509;28;20391;-29
2022/10/29 12:28:18;;;;;;;13.88;4.47;;;22.50;86.60;;;;;;10459117;28;20132;-27
2022/10/29 12:33:24;;;;;;;11.40;3.30;;;22.80;84.90;;;;;;10460341;28;20144;-34
2022/10/29 12:38:36;;;;;;;18.63;4.10;;;22.90;83.50;;;;;;10440379;28;20466;-28
2022/10/29 12:43:40;;;;;;;9.93;3.45;;;23.00;82.80;;;;;;10440966;28;20125;-29
2022/10/29 12:48:49;;;;;;;12.23;4.55;;;22.90;82.50;;;;;;10442221;28;20463;-26
2022/10/29 12:54:14;;;;;;;8.98;3.20;;;23.10;81.80;;;;;;10451461;28;20733;-28
2022/10/29 12:59:32;;;;;;;8.10;3.88;;;23.10;81.60;;;;;;10441603;28;20223;-29
2022/10/29 13:04:34;;;;;;;6.18;2.85;;;22.80;84.50;;;;;;10433057;28;20430;-30
2022/10/29 13:09:37;;;;;;;8.23;4.03;;;22.80;83.50;;;;;;10457286;28;20094;-29
2022/10/29 13:14:45;;;;;;;16.02;3.75;;;22.70;84.90;;;;;;10441370;28;20501;-28
2022/10/29 13:19:52;;;;;;;11.10;3.08;;;22.70;85.50;;;;;;10429447;28;20069;-29
2022/10/29 13:25:31;;;;;;;6.20;3.20;;;22.60;86.90;;;;;;10421117;28;20117;-28
2022/10/29 13:30:36;;;;;;;6.88;2.60;;;22.60;85.10;;;;;;10424765;28;20528;-28
2022/10/29 13:35:40;;;;;;;8.27;3.40;;;22.50;85.40;;;;;;10423753;28;20069;-28
2022/10/29 13:41:18;;;;;;;8.52;3.42;;;22.50;86.10;;;;;;10420150;28;20420;-29
2022/10/29 13:46:49;;;;;;;7.00;3.08;;;22.50;87.10;;;;;;10454008;28;20438;-30
2022/10/29 13:51:59;;;;;;;11.57;3.80;;;22.50;86.50;;;;;;10435207;28;20050;-30
2022/10/29 13:57:05;;;;;;;6.47;3.20;;;22.60;86.40;;;;;;10439658;28;20087;-28
2022/10/29 14:02:42;;;;;;;15.35;3.20;;;22.80;87.10;;;;;;10435594;28;20096;-29
2022/10/29 14:07:51;;;;;;;6.57;2.90;;;23.20;89.50;;;;;;10454624;28;20126;-27
2022/10/29 14:12:58;;;;;;;10.43;3.58;;;23.20;85.20;;;;;;10455908;28;20041;-29
2022/10/29 14:18:23;;;;;;;9.35;3.53;;;23.10;85.40;;;;;;10447289;28;20080;-28
2022/10/29 14:23:26;;;;;;;8.32;3.28;;;23.10;88.00;;;;;;10445272;28;20506;-31
2022/10/29 14:28:29;;;;;;;7.50;2.45;;;23.00;88.60;;;;;;10448982;28;20460;-30
2022/10/29 14:33:34;;;;;;;7.28;3.15;;;22.90;85.40;;;;;;10447205;28;20103;-37
2022/10/29 14:38:42;;;;;;;6.70;2.45;;;22.90;86.40;;;;;;10438059;28;20049;-27
2022/10/29 14:43:46;;;;;;;4.88;2.40;;;22.80;86.00;;;;;;10449302;28;20053;-27
2022/10/29 14:49:03;;;;;;;5.53;2.53;;;22.80;85.90;;;;;;10448440;28;20045;-30
2022/10/29 14:54:07;;;;;;;5.97;3.03;;;22.80;85.80;;;;;;10444015;28;20079;-25
2022/10/29 14:59:16;;;;;;;4.90;2.10;;;22.80;86.80;;;;;;10449740;28;20082;-29
2022/10/29 15:04:22;;;;;;;3.30;2.30;;;22.70;86.40;;;;;;10438080;28;20478;-28
2022/10/29 15:09:27;;;;;;;5.30;2.63;;;22.70;86.40;;;;;;10432141;28;20083;-29
2022/10/29 15:14:38;;;;;;;3.58;2.55;;;22.70;86.70;;;;;;10434487;28;20049;-29
2022/10/29 15:19:45;;;;;;;3.87;2.13;;;22.70;87.10;;;;;;10435069;28;20053;-34
2022/10/29 15:24:50;;;;;;;4.60;2.08;;;22.70;87.00;;;;;;10446678;28;20482;-26
2022/10/29 15:29:54;;;;;;;2.47;1.98;;;22.70;87.10;;;;;;10428370;28;20486;-28
2022/10/29 15:34:59;;;;;;;4.68;2.20;;;22.70;87.30;;;;;;10466761;28;20041;-28
2022/10/29 15:40:07;;;;;;;3.40;2.33;;;22.60;87.30;;;;;;10447681;28;20129;-27
2022/10/29 15:45:16;;;;;;;4.38;2.30;;;22.70;87.40;;;;;;10439799;28;20053;-27
2022/10/29 15:50:21;;;;;;;4.85;2.03;;;22.70;87.60;;;;;;10439104;28;20072;-27
2022/10/29 15:55:26;;;;;;;4.05;2.17;;;22.60;87.70;;;;;;10447690;28;20107;-28
2022/10/29 16:00:29;;;;;;;3.65;2.50;;;22.60;87.80;;;;;;10450218;28;20040;-29
2022/10/29 16:05:32;;;;;;;5.93;2.72;;;22.60;87.90;;;;;;10447140;28;20099;-30
2022/10/29 16:10:34;;;;;;;4.43;2.45;;;22.60;88.20;;;;;;10448270;28;20065;-28
2022/10/29 16:15:36;;;;;;;7.03;2.42;;;22.60;88.40;;;;;;10450649;28;20072;-26
2022/10/29 16:20:39;;;;;;;;;;;22.50;88.50;;;;;;10450940;28;20502;-35
2022/10/29 16:25:41;;;;;;;7.07;2.85;;;22.60;88.70;;;;;;10453312;28;19983;-32
2022/10/29 16:30:52;;;;;;;11.23;2.95;;;22.50;88.90;;;;;;10442769;28;20052;-35
2022/10/29 16:35:56;;;;;;;8.60;4.45;;;22.50;89.30;;;;;;10437231;28;20444;-32
2022/10/29 16:40:57;;;;;;;9.50;3.70;;;22.50;89.50;;;;;;10449037;28;20041;-27
2022/10/29 16:45:59;;;;;;;11.38;4.45;;;22.50;89.70;;;;;;10435367;28;20056;-25
2022/10/29 16:51:03;;;;;;;18.55;4.90;;;22.70;90.10;;;;;;10423240;28;20103;-26
2022/10/29 16:56:05;;;;;;;15.38;5.30;;;22.70;90.10;;;;;;10437018;28;20095;-26
2022/10/29 17:01:09;;;;;;;17.50;6.13;;;22.60;90.40;;;;;;10440370;28;20049;-24
2022/10/29 17:06:12;;;;;;;13.90;5.10;;;23.40;92.40;;;;;;10450176;28;20532;-28
2022/10/29 17:11:14;;;;;;;14.93;5.25;;;23.90;90.10;;;;;;10451551;28;20149;-29
2022/10/29 17:16:17;;;;;;;;;;;23.70;87.90;;;;;;10452355;28;20053;-31
2022/10/29 17:21:21;;;;;;;21.23;6.43;;;24.10;92.70;;;;;;10443379;28;19986;-30
2022/10/29 17:26:23;;;;;;;14.93;7.65;;;23.80;88.50;;;;;;10430927;28;20045;-26
2022/10/29 17:31:25;;;;;;;15.52;7.50;;;23.40;89.20;;;;;;10429092;28;20075;-29
2022/10/29 17:36:29;;;;;;;17.20;8.38;;;23.40;92.40;;;;;;10436323;28;20053;-29
2022/10/29 17:41:31;;;;;;;15.38;7.47;;;23.00;90.70;;;;;;10441228;28;20041;-28
2022/10/29 17:46:33;;;;;;;;;;;22.90;90.80;;;;;;10439296;28;20060;-30
2022/10/29 17:51:36;;;;;;;16.90;9.30;;;22.70;91.10;;;;;;10450951;28;19964;-30
2022/10/29 17:56:39;;;;;;;13.50;7.47;;;22.60;90.70;;;;;;10451140;28;20068;-28
2022/10/29 18:01:41;;;;;;;22.92;8.90;;;22.60;91.10;;;;;;10447681;28;20045;-28
2022/10/29 18:06:44;;;;;;;10.55;6.45;;;22.70;91.10;;;;;;10453469;28;20085;-27
2022/10/29 18:11:46;;;;;;;14.85;7.88;;;22.60;90.50;;;;;;10455041;28;20079;-27
2022/10/29 18:16:47;;;;;;;13.20;7.03;;;22.50;91.30;;;;;;10447901;28;20100;-27
2022/10/29 18:21:51;;;;;;;13.13;7.05;;;22.80;91.20;;;;;;10442668;28;20447;-27
2022/10/29 18:26:52;;;;;;;17.92;7.57;;;22.60;90.50;;;;;;10448882;28;20056;-28
2022/10/29 18:31:54;;;;;;;19.73;9.18;;;22.70;91.10;;;;;;10453816;28;20497;-27
2022/10/29 18:36:57;;;;;;;13.35;6.90;;;22.60;91.30;;;;;;10450725;28;20076;-27
2022/10/29 18:41:59;;;;;;;20.63;7.05;;;22.60;91.20;;;;;;10441296;28;20080;-27
2022/10/29 18:47:01;;;;;;;;;;;22.30;89.80;;;;;;10435790;28;20053;-31
2022/10/29 18:52:04;;;;;;;12.70;5.03;;;22.40;91.50;;;;;;10446892;28;19925;-26
2022/10/29 18:57:06;;;;;;;13.35;5.45;;;22.50;91.20;;;;;;10429988;28;20150;-27
2022/10/29 19:02:10;;;;;;;13.35;5.03;;;22.50;91.30;;;;;;10446970;28;20171;-26
2022/10/29 19:07:13;;;;;;;19.05;5.28;;;22.40;91.50;;;;;;10461818;28;20056;-27
2022/10/29 19:12:15;;;;;;;10.65;6.13;;;22.20;91.80;;;;;;10442142;28;20060;-28
2022/10/29 19:17:17;;;;;;;12.65;5.00;;;22.30;91.60;;;;;;10445122;28;20083;-30
2022/10/29 19:22:20;;;;;;;13.55;5.35;;;22.20;91.60;;;;;;10432979;28;20044;-27
2022/10/29 19:27:22;;;;;;;10.43;4.85;;;22.30;91.50;;;;;;10438361;28;20129;-28
2022/10/29 19:32:24;;;;;;;;;;;22.00;92.00;;;;;;10446065;28;20052;-28
2022/10/29 19:37:27;;;;;;;13.38;4.97;;;21.90;92.00;;;;;;10442855;28;20289;-27
2022/10/29 19:42:29;;;;;;;19.05;4.60;;;21.60;93.20;;;;;;10449599;28;20566;-27
2022/10/29 19:47:31;;;;;;;13.05;5.68;;;21.70;92.20;;;;;;10449942;28;20087;-26
2022/10/29 19:52:34;;;;;;;12.00;5.35;;;21.10;93.80;;;;;;10448336;28;20482;-27
2022/10/29 19:57:36;;;;;;;13.57;4.90;;;21.70;92.90;;;;;;10444252;28;20174;-28
2022/10/29 20:02:39;;;;;;;19.08;4.75;;;21.30;93.10;;;;;;10436128;28;20049;-29
2022/10/29 20:07:42;;;;;;;15.52;5.47;;;21.00;93.80;;;;;;10445541;28;20060;-26
2022/10/29 20:12:44;;;;;;;17.35;4.68;;;21.20;92.40;;;;;;10436295;28;20131;-27
2022/10/29 20:17:46;;;;;;;15.52;4.90;;;21.20;93.20;;;;;;10447224;28;20045;-26
2022/10/29 20:22:51;;;;;;;17.60;5.68;;;21.20;93.70;;;;;;10435903;28;20049;-26
2022/10/29 20:27:52;;;;;;;18.88;5.38;;;21.10;93.60;;;;;;10443396;28;20144;-26
2022/10/29 20:32:54;;;;;;;18.73;5.65;;;20.20;95.30;;;;;;10446807;28;20128;-27
2022/10/29 20:37:57;;;;;;;19.77;5.30;;;20.30;96.00;;;;;;10447650;28;20045;-28
2022/10/29 20:42:59;;;;;;;22.80;6.93;;;20.10;94.80;;;;;;10449078;28;20076;-30
2022/10/29 20:48:01;;;;;;;13.30;4.25;;;19.90;96.30;;;;;;10424755;28;20512;-27
2022/10/29 20:53:04;;;;;;;;;;;20.20;94.70;;;;;;10425765;28;20071;-27
2022/10/29 20:58:06;;;;;;;16.98;5.43;;;20.20;95.30;;;;;;10454837;28;20387;-26
2022/10/29 21:03:11;;;;;;;11.45;4.90;;;19.80;96.50;;;;;;10451387;28;20080;-36
2022/10/29 21:08:14;;;;;;;7.90;4.28;;;20.00;96.80;;;;;;10433470;28;20088;-27
2022/10/29 21:13:16;;;;;;;16.00;4.50;;;20.80;94.70;;;;;;10445629;28;20107;-25
2022/10/29 21:18:18;;;;;;;10.50;3.60;;;21.20;93.30;;;;;;10431981;28;20073;-27
2022/10/29 21:23:21;;;;;;;12.75;4.82;;;21.30;93.40;;;;;;10436494;28;20103;-27
2022/10/29 21:28:23;;;;;;;9.63;3.42;;;21.50;92.00;;;;;;10422978;28;20053;-28
2022/10/29 21:33:24;;;;;;;13.63;3.85;;;21.30;93.10;;;;;;10425788;28;20128;-28
2022/10/29 21:38:28;;;;;;;10.63;3.67;;;21.20;93.10;;;;;;10428059;28;20096;-29
2022/10/29 21:43:30;;;;;;;15.98;4.22;;;20.20;95.50;;;;;;10425494;28;20052;-26
2022/10/29 21:48:32;;;;;;;11.45;3.80;;;20.60;94.90;;;;;;10449229;28;20148;-26
2022/10/29 21:53:36;;;;;;;9.40;3.85;;;21.00;93.90;;;;;;10454105;28;20470;-26
2022/10/29 21:58:38;;;;;;;18.23;4.32;;;21.00;93.80;;;;;;10461528;28;20040;-25
2022/10/29 22:03:41;;;;;;;11.82;4.30;;;20.60;93.50;;;;;;10451295;28;20139;-28
2022/10/29 22:08:45;;;;;;;10.48;4.53;;;21.00;93.70;;;;;;10465022;28;20402;-26
2022/10/29 22:13:46;;;;;;;14.13;5.13;;;21.40;92.80;;;;;;10456227;28;20625;-28
2022/10/29 22:18:49;;;;;;;11.73;4.47;;;20.90;93.20;;;;;;10459284;28;20045;-27
2022/10/29 22:23:54;;;;;;;13.60;3.92;;;20.20;94.50;;;;;;10456569;28;20045;-28
2022/10/29 22:28:57;;;;;;;18.90;5.57;;;19.60;96.70;;;;;;10452259;28;20045;-29
2022/10/29 22:33:59;;;;;;;10.15;5.10;;;20.10;95.50;;;;;;10459648;28;20065;-28
2022/10/29 22:39:02;;;;;;;9.75;4.57;;;20.40;95.00;;;;;;10449567;28;20053;-28
2022/10/29 22:44:04;;;;;;;7.82;3.78;;;20.70;93.70;;;;;;10467093;28;20049;-28
2022/10/29 22:49:06;;;;;;;12.65;4.03;;;20.30;95.50;;;;;;10455375;28;20053;-29
2022/10/29 22:54:10;;;;;;;11.35;3.38;;;20.60;94.70;;;;;;10452763;28;20064;-28
2022/10/29 22:59:12;;;;;;;10.40;3.58;;;21.20;93.00;;;;;;10462686;28;20094;-26
2022/10/29 23:04:14;;;;;;;7.35;3.28;;;21.40;92.10;;;;;;10457653;28;20759;-26
2022/10/29 23:09:17;;;;;;;6.20;2.85;;;21.60;91.20;;;;;;10471703;28;20140;-28
2022/10/29 23:14:19;;;;;;;12.85;4.57;;;21.30;92.50;;;;;;10453386;28;20083;-26
2022/10/29 23:19:21;;;;;;;14.20;5.40;;;21.10;92.90;;;;;;10437340;28;20041;-27
2022/10/29 23:24:24;;;;;;;10.25;3.35;;;20.70;93.50;;;;;;10454054;28;20072;-27
2022/10/29 23:29:26;;;;;;;7.45;3.08;;;20.40;95.00;;;;;;10468425;28;20064;-27
2022/10/29 23:34:28;;;;;;;14.75;5.78;;;20.40;95.10;;;;;;10462146;28;20052;-26
2022/10/29 23:39:31;;;;;;;8.43;3.38;;;20.60;94.00;;;;;;10458299;28;20114;-29
2022/10/29 23:44:33;;;;;;;17.35;5.28;;;20.50;94.30;;;;;;10457948;28;20540;-28
2022/10/29 23:49:35;;;;;;;9.43;3.38;;;20.60;93.90;;;;;;10444005;28;20099;-26
2022/10/29 23:54:38;;;;;;;7.72;3.58;;;20.50;94.40;;;;;;10437736;28;20108;-26
2022/10/29 23:59:40;;;;;;;8.40;3.03;;;20.60;94.10;;;;;;10447105;28;20041;-24
